Boise Air Terminal/Gowen field
KBOI : now visible

Airfield :











YOU CAN JOIN US ON...

 
LOGIN :

Register | Disclaimer

   EN    FR    IT 

 









Legend :    VFR   Marginal VFR   IFR   Intensive IFR   Very Intensive IFR
Visi :
Ceiling :
>= 8 km
>= 3000ft
5 to 8 km
1000 to 3000 ft
1500m to 5 km
500 to 1000 ft
800 to 1500m
200 to 500 ft
< 800m
< 200 ft
Symbols :   Thunderstorms  Fog  Heavy snow  Heavy precipitations  Wind > 20 kt






- Airport Elevation : 2871 ft
- IATA code : BOI


KBOI - Boise Air Terminal/Gowen field

CURRENT METAR :
  • 291253Z 30008KT 10SM CLR 16/05 A3011 RMK AO2 SLP164 T01560050

EXPIRED METARs :
  • 291153Z 30008KT 10SM CLR 16/05 A3008 RMK AO2 SLP156 T01560050 10250 20156 51022
  • 291053Z 28010KT 10SM CLR 17/04 A3006 RMK AO2 SLP148 T01720044

TAF KBOI
Valid from the 29 at 12:00 until the 30 at 12:00 UTC


291133Z 2912/3012 28010KT P6SM SKC
FM300300 VRB05KT P6SM SKC
KZLC FIR / North America



MET'MAP, your aeronautical weather chart ! - Copyright ORBIFLY December 2007 - Disclaimer

ORBIFLY MET'MAP TEAM :

Programming & Development : Alexandra Zaïnal
Original concept : Baudouin d'Aumeries
Technical & hardware support : Manuel Goepfert
Assistance : Marc-Olivier Méhu




SOURCES & CREDITS :

   NOAA       Earth
Advisory